Jeanerette, Louisiana
Current Conditions -  °F | °C
As of 5:53 AM on Thursday 18 Dec 2014 (Local Time) from KARA Reporting Station
Overcast Overcast  
Wind Chill: 53°   Ceiling: 11000
Heat Index: 53°   Visibility: 10mi
Dew Point: 45°   Wind: 6mph
Humidity: 74%   Direction: 90°E
Pressure: 30.12"   Gusts: NA
Location:  29.91°N, 91.66°W
Report Text: KARA 181153Z 09005KT 10SM SCT060 OVC110 12/07 A3012 RMK AO2 SLP199 T01170072 10117 20083 55012
Loading
Personal Weather Stations






























Interactive Weather Map New forecast layout! Learn more

10-Day Weather Forecast

Advertisements
Track Severe Weather on mobile